Aktuální počasí v Česku a ve světě - METAR

Seznam meteostanic umístěných nejčasteji na letišti v ČR a ve světě

Vyhledat místa podle abecedy:
A B C D E F G H I J K L M N O P Q R S T U V W X Y Z

Filtrovat:

ID stanice:
a/nebo
Název místa (fulltext):
 
Místo (ID)Naposledy načteno 
Faro (LPFR) 04.12.2020 04:00 UTC Zobrazit METAR
LPFR 040400Z 27013KT 9999 BKN045 15/11 Q1009
Florence (LIRQ) 03.12.2020 21:50 UTC Zobrazit METAR
LIRQ 032150Z VRB01KT 5000 BR SCT010 02/02 Q1005
Foggia, Gino Lisa (LIBF) 03.12.2020 14:50 UTC Zobrazit METAR
LIBF 031450Z 32006KT 6000 -RA BKN035 10/10 Q1005
Fort de France (TFFF) 04.12.2020 04:00 UTC Zobrazit METAR
TFFF 040400Z AUTO 05006KT 9999 -RA SCT042 BKN054 OVC066 24/22 Q1014 TEMPO 4000 SHRA SCT018TCU
Frankfurt/ Main (EDDF) 04.12.2020 03:50 UTC Zobrazit METAR
EDDF 040350Z 01005KT 340V040 9999 -RA FEW015 SCT025 BKN035 02/01 Q0989 R25R/190095 R25C/190095 R25L/190095 R18/190095 NOSIG
Freetown (GFLL) 02.12.2020 20:00 UTC Zobrazit METAR
GFLL 022000Z 24006KT 9000 HZ BKN012 28/23 Q1010 RMK CB-NE
Funafuti (NGFU) 03.12.2020 04:00 UTC Zobrazit METAR
NGFU 030400Z 06006KT 9999 SCT020 BKN310 30/25 Q1007
Reklama


Další české internetové stránky (nejen) o počasí najdete v katalogu TOPlist - weby o počasí nebo vyhledejte na internetu, co jste tu na 🌞 Slunečnu ⛅ zatím nenašli:
⭐ Přidat Slunečno.cz do oblíbených | 🏠 Nastavit Slunečno.cz jako HOMEPAGE

⬆️ Posunout stránku nahoru ⬆️
Reklama